Time;durP1;ratioP1;P1;durP2;ratioP2;P2;SDS_P1;SDS_P2;PMS_P1;PMS_P2;Temp;Humidity;BMP_temperature;BMP_pressure;BME280_temperature;BME280_humidity;BME280_pressure;Samples;Min_cycle;Max_cycle;Signal;HPM_P1;HPM_P2
2021/07/22 00:01:47;;;;;;;;;;;18.40;1.00;;;;;;5031784;28;19909;-64
2021/07/22 00:04:12;;;;;;;;;;;18.50;1.00;;;;;;5031887;28;19913;-64
2021/07/22 00:06:38;;;;;;;;;;;18.50;1.00;;;;;;5031420;28;20036;-64
2021/07/22 00:09:03;;;;;;;;;;;18.50;1.00;;;;;;5031649;28;19913;-63
2021/07/22 00:11:29;;;;;;;;;;;18.50;1.00;;;;;;5031835;28;19913;-64
2021/07/22 00:13:54;;;;;;;;;;;18.50;1.00;;;;;;5031675;28;19932;-65
2021/07/22 00:16:20;;;;;;;;;;;18.50;1.00;;;;;;5031815;28;19935;-66
2021/07/22 00:18:45;;;;;;;;;;;18.50;1.00;;;;;;5031308;28;19967;-65
2021/07/22 00:21:11;;;;;;;;;;;18.50;1.00;;;;;;5031377;28;20317;-65
2021/07/22 00:23:36;;;;;;;;;;;18.50;1.00;;;;;;5032091;28;19915;-64
2021/07/22 00:26:05;;;;;;;;;;;18.60;1.00;;;;;;5031448;28;19982;-64
2021/07/22 00:28:31;;;;;;;;;;;18.60;1.00;;;;;;5030289;28;20357;-65
2021/07/22 00:30:57;;;;;;;;;;;18.50;1.00;;;;;;5030747;28;19920;-65
2021/07/22 00:33:23;;;;;;;;;;;18.50;1.00;;;;;;5031655;28;19999;-65
2021/07/22 00:35:48;;;;;;;;;;;18.50;1.00;;;;;;5031096;28;20012;-65
2021/07/22 00:38:14;;;;;;;;;;;18.40;1.00;;;;;;5030836;28;20263;-65
2021/07/22 00:40:44;;;;;;;;;;;18.40;1.00;;;;;;5030961;28;19956;-65
2021/07/22 00:43:09;;;;;;;;;;;18.40;1.00;;;;;;5030590;28;20393;-65
2021/07/22 00:45:35;;;;;;;;;;;18.40;1.00;;;;;;5030803;28;20205;-65
2021/07/22 00:48:01;;;;;;;;;;;18.30;1.00;;;;;;5030975;28;19932;-66
2021/07/22 00:50:27;;;;;;;;;;;18.20;1.00;;;;;;5030681;28;19916;-66
2021/07/22 00:52:53;;;;;;;;;;;18.20;1.00;;;;;;5031211;28;20004;-66
2021/07/22 00:55:21;;;;;;;;;;;18.10;1.00;;;;;;5030423;28;19913;-66
2021/07/22 00:57:47;;;;;;;;;;;18.00;1.00;;;;;;5030860;28;19913;-66
2021/07/22 01:00:12;;;;;;;;;;;18.00;1.00;;;;;;5029058;28;20120;-66
2021/07/22 01:02:39;;;;;;;;;;;17.90;1.00;;;;;;5031320;28;19915;-66
2021/07/22 01:05:05;;;;;;;;;;;17.90;1.00;;;;;;5029746;28;19952;-66
2021/07/22 01:07:30;;;;;;;;;;;17.80;1.00;;;;;;5030375;28;20014;-66
2021/07/22 01:09:56;;;;;;;;;;;17.80;1.00;;;;;;5030120;28;19924;-65
2021/07/22 01:12:21;;;;;;;;;;;17.70;1.00;;;;;;5031110;28;19910;-66
2021/07/22 01:14:47;;;;;;;;;;;17.70;1.00;;;;;;5030072;28;19955;-65
2021/07/22 01:17:32;;;;;;;;;;;17.70;1.00;;;;;;5030249;28;20658;-65
2021/07/22 01:20:01;;;;;;;;;;;17.60;17.70;;;;;;5029906;28;19914;-65
2021/07/22 01:22:26;;;;;;;;;;;17.60;30.40;;;;;;5030711;28;20087;-65
2021/07/22 01:24:52;;;;;;;;;;;17.60;13.40;;;;;;5030384;28;19992;-65
2021/07/22 01:27:17;;;;;;;;;;;17.60;1.00;;;;;;5028603;28;19946;-64
2021/07/22 01:29:43;;;;;;;;;;;17.60;1.00;;;;;;5029454;28;19939;-65
2021/07/22 01:32:08;;;;;;;;;;;17.50;1.00;;;;;;5029716;28;19932;-65
2021/07/22 01:34:34;;;;;;;;;;;17.50;1.00;;;;;;5029795;28;19909;-65
2021/07/22 01:36:59;;;;;;;;;;;17.40;1.00;;;;;;5028490;28;20345;-63
2021/07/22 01:39:25;;;;;;;;;;;17.40;5.00;;;;;;5029509;28;19924;-64
2021/07/22 01:41:51;;;;;;;;;;;17.40;30.60;;;;;;5030461;28;19915;-65
2021/07/22 01:44:17;;;;;;;;;;;17.40;58.60;;;;;;5029456;28;19909;-65
2021/07/22 01:46:42;;;;;;;;;;;17.30;99.90;;;;;;5028277;28;19944;-65
2021/07/22 01:49:07;;;;;;;;;;;17.30;99.90;;;;;;5029540;28;20099;-66
2021/07/22 01:51:33;;;;;;;;;;;17.30;99.90;;;;;;5028222;28;19921;-65
2021/07/22 01:53:59;;;;;;;;;;;17.30;57.40;;;;;;5030315;28;20424;-65
2021/07/22 01:56:24;;;;;;;;;;;17.30;37.70;;;;;;5029847;28;19913;-66
2021/07/22 01:58:49;;;;;;;;;;;17.30;23.20;;;;;;5028825;28;19992;-64
2021/07/22 02:01:15;;;;;;;;;;;17.30;13.20;;;;;;5029493;28;19997;-65
2021/07/22 02:03:40;;;;;;;;;;;17.20;1.00;;;;;;5030148;28;20369;-65
2021/07/22 02:06:07;;;;;;;;;;;17.20;1.00;;;;;;5029447;28;19952;-64
2021/07/22 02:08:33;;;;;;;;;;;17.20;1.00;;;;;;5029631;28;19929;-65
2021/07/22 02:11:01;;;;;;;;;;;17.10;14.20;;;;;;5030019;28;19920;-64
2021/07/22 02:13:26;;;;;;;;;;;17.10;25.10;;;;;;5029331;28;19913;-64
2021/07/22 02:15:52;;;;;;;;;;;17.00;99.90;;;;;;5029402;28;19919;-64
2021/07/22 02:18:17;;;;;;;;;;;17.00;99.90;;;;;;5027768;28;19910;-65
2021/07/22 02:20:43;;;;;;;;;;;17.00;99.90;;;;;;5029532;28;19961;-65
2021/07/22 02:23:08;;;;;;;;;;;17.00;99.90;;;;;;5029950;28;19935;-64
2021/07/22 02:25:34;;;;;;;;;;;17.00;99.90;;;;;;5029328;28;19909;-64
2021/07/22 02:28:00;;;;;;;;;;;17.00;99.90;;;;;;5029339;28;19925;-66
2021/07/22 02:30:25;;;;;;;;;;;17.00;99.90;;;;;;5028751;28;19919;-64
2021/07/22 02:32:51;;;;;;;;;;;16.90;99.90;;;;;;5030038;28;19955;-64
2021/07/22 02:35:16;;;;;;;;;;;16.90;99.90;;;;;;5028494;28;20309;-64
2021/07/22 02:37:42;;;;;;;;;;;16.90;99.90;;;;;;5028924;28;20487;-64
2021/07/22 02:40:07;;;;;;;;;;;16.80;99.90;;;;;;5027727;28;20358;-64
2021/07/22 02:42:33;;;;;;;;;;;16.80;99.90;;;;;;5029758;28;19917;-65
2021/07/22 02:44:58;;;;;;;;;;;16.80;99.90;;;;;;5027025;28;19909;-65
2021/07/22 02:47:26;;;;;;;;;;;16.80;99.90;;;;;;5027278;28;20050;-65
2021/07/22 02:49:51;;;;;;;;;;;16.80;99.90;;;;;;5028530;28;19917;-65
2021/07/22 02:52:17;;;;;;;;;;;16.80;99.90;;;;;;5026678;28;20327;-65
2021/07/22 02:54:42;;;;;;;;;;;16.70;99.90;;;;;;5029140;28;20020;-65
2021/07/22 02:57:08;;;;;;;;;;;16.80;99.90;;;;;;5029521;28;19909;-65
2021/07/22 02:59:33;;;;;;;;;;;16.80;99.90;;;;;;5027462;28;19971;-65
2021/07/22 03:01:59;;;;;;;;;;;16.70;99.90;;;;;;5028526;28;19909;-65
2021/07/22 03:04:24;;;;;;;;;;;16.70;99.90;;;;;;5026950;28;19989;-65
2021/07/22 03:06:50;;;;;;;;;;;16.70;1.00;;;;;;5028136;28;20291;-64
2021/07/22 03:09:15;;;;;;;;;;;16.70;1.00;;;;;;5028122;28;19975;-64
2021/07/22 03:11:41;;;;;;;;;;;16.70;1.00;;;;;;5028371;28;20359;-65
2021/07/22 03:14:06;;;;;;;;;;;16.60;1.00;;;;;;5027985;28;19909;-65
2021/07/22 03:16:32;;;;;;;;;;;16.60;1.00;;;;;;5028219;28;19944;-65
2021/07/22 03:18:57;;;;;;;;;;;16.60;1.00;;;;;;5028650;28;20254;-65
2021/07/22 03:21:23;;;;;;;;;;;16.70;1.00;;;;;;5028290;28;19936;-65
2021/07/22 03:23:48;;;;;;;;;;;16.60;1.00;;;;;;5028928;28;19913;-65
2021/07/22 03:26:18;;;;;;;;;;;16.60;1.00;;;;;;5028639;28;19913;-65
2021/07/22 03:28:44;;;;;;;;;;;16.60;1.00;;;;;;5027655;28;19979;-65
2021/07/22 03:31:10;;;;;;;;;;;16.70;1.00;;;;;;5028212;28;19936;-66
2021/07/22 03:33:36;;;;;;;;;;;16.70;1.00;;;;;;5028357;28;19910;-65
2021/07/22 03:36:04;;;;;;;;;;;16.70;1.00;;;;;;5027890;28;19993;-65
2021/07/22 03:38:30;;;;;;;;;;;16.70;1.00;;;;;;5028313;28;19917;-64
2021/07/22 03:40:55;;;;;;;;;;;16.80;99.90;;;;;;5028412;28;19914;-65
2021/07/22 03:43:21;;;;;;;;;;;16.80;99.90;;;;;;5027720;28;19988;-64
2021/07/22 03:45:46;;;;;;;;;;;16.80;99.90;;;;;;5027677;28;19968;-65
2021/07/22 03:48:15;;;;;;;;;;;16.80;99.90;;;;;;5027863;28;19917;-64
2021/07/22 03:50:40;;;;;;;;;;;16.80;99.90;;;;;;5028089;28;20015;-64
2021/07/22 03:53:07;;;;;;;;;;;16.80;99.90;;;;;;5028879;28;19955;-63
2021/07/22 03:55:33;;;;;;;;;;;16.80;99.90;;;;;;5028475;28;19913;-64
2021/07/22 03:57:58;;;;;;;;;;;16.80;99.90;;;;;;5031958;28;19978;-64
2021/07/22 04:00:24;;;;;;;;;;;16.80;99.90;;;;;;5031624;28;19909;-64
2021/07/22 04:03:00;;;;;;;;;;;16.80;99.90;;;;;;5032643;28;19909;-65
2021/07/22 04:05:26;;;;;;;;;;;16.90;99.90;;;;;;5031582;28;19909;-64
2021/07/22 04:07:56;;;;;;;;;;;17.00;99.90;;;;;;5032035;28;19909;-64
2021/07/22 04:10:21;;;;;;;;;;;16.90;99.90;;;;;;5030692;28;20393;-64
2021/07/22 04:12:51;;;;;;;;;;;17.10;99.90;;;;;;5032401;28;19956;-64
2021/07/22 04:15:17;;;;;;;;;;;17.00;4.60;;;;;;5030674;28;20000;-64
2021/07/22 04:17:42;;;;;;;;;;;17.00;27.10;;;;;;5031731;28;20203;-65
2021/07/22 04:20:08;;;;;;;;;;;17.20;98.90;;;;;;5025628;28;19920;-65
2021/07/22 04:22:34;;;;;;;;;;;17.20;1.00;;;;;;5030932;28;19989;-65
2021/07/22 04:25:02;;;;;;;;;;;17.30;1.00;;;;;;5031064;28;19932;-64
2021/07/22 04:27:27;;;;;;;;;;;17.30;1.00;;;;;;5041078;28;20297;-65
2021/07/22 04:29:54;;;;;;;;;;;17.40;1.00;;;;;;5030019;28;19924;-64
2021/07/22 04:32:20;;;;;;;;;;;17.50;1.00;;;;;;5030687;28;19913;-64
2021/07/22 04:34:45;;;;;;;;;;;17.60;1.00;;;;;;5030255;28;19920;-65
2021/07/22 04:37:11;;;;;;;;;;;17.80;99.90;;;;;;5029876;28;20011;-66
2021/07/22 04:39:36;;;;;;;;;;;17.90;99.90;;;;;;5030755;28;20262;-66
2021/07/22 04:42:02;;;;;;;;;;;17.90;99.90;;;;;;5031378;28;20393;-66
2021/07/22 04:44:27;;;;;;;;;;;18.00;99.90;;;;;;5030807;28;20222;-65
2021/07/22 04:46:56;;;;;;;;;;;18.00;99.90;;;;;;5034921;28;20348;-65
2021/07/22 04:49:21;;;;;;;;;;;18.00;99.90;;;;;;5029285;28;19913;-65
2021/07/22 04:51:47;;;;;;;;;;;18.30;91.80;;;;;;5031095;28;19920;-65
2021/07/22 04:54:12;;;;;;;;;;;18.60;1.00;;;;;;5031063;28;19917;-64
2021/07/22 04:56:38;;;;;;;;;;;19.00;1.00;;;;;;5031652;28;19909;-65
2021/07/22 04:59:03;;;;;;;;;;;19.50;1.00;;;;;;5039010;28;19956;-65
2021/07/22 05:01:29;;;;;;;;;;;20.00;1.00;;;;;;5030835;28;19909;-65
2021/07/22 05:03:54;;;;;;;;;;;20.60;99.90;;;;;;5030732;28;19916;-64
2021/07/22 05:06:20;;;;;;;;;;;21.10;99.90;;;;;;5040246;28;19952;-66
2021/07/22 05:08:45;;;;;;;;;;;21.50;99.90;;;;;;5050029;28;19912;-66
2021/07/22 05:11:11;;;;;;;;;;;21.80;99.90;;;;;;5040393;28;19916;-66
2021/07/22 05:13:39;;;;;;;;;;;22.00;99.90;;;;;;5041049;28;19971;-66
2021/07/22 05:16:06;;;;;;;;;;;22.00;99.90;;;;;;5030542;28;19909;-66
2021/07/22 05:18:31;;;;;;;;;;;21.80;99.90;;;;;;5046975;28;19916;-66
2021/07/22 05:20:57;;;;;;;;;;;21.70;99.90;;;;;;5051261;28;19915;-66
2021/07/22 05:23:22;;;;;;;;;;;22.00;99.90;;;;;;5049630;28;19913;-66
2021/07/22 05:25:48;;;;;;;;;;;22.40;99.90;;;;;;5051725;28;19908;-66
2021/07/22 05:28:13;;;;;;;;;;;23.20;99.90;;;;;;5049982;28;19973;-65
2021/07/22 05:30:39;;;;;;;;;;;23.90;99.90;;;;;;5051067;28;19912;-66
2021/07/22 05:33:07;;;;;;;;;;;24.70;99.90;;;;;;5051905;28;19909;-66
2021/07/22 05:35:32;;;;;;;;;;;25.30;99.90;;;;;;5051916;28;20369;-65
2021/07/22 05:37:58;;;;;;;;;;;25.90;99.90;;;;;;5049661;28;19909;-65
2021/07/22 05:40:23;;;;;;;;;;;26.50;99.90;;;;;;5051139;28;19924;-66
2021/07/22 05:42:49;;;;;;;;;;;27.00;99.90;;;;;;5051304;28;19919;-68
2021/07/22 05:45:15;;;;;;;;;;;27.50;99.90;;;;;;5050900;28;19909;-66
2021/07/22 05:47:41;;;;;;;;;;;27.80;99.90;;;;;;5051214;28;19954;-66
2021/07/22 05:50:07;;;;;;;;;;;28.40;99.90;;;;;;5051425;28;19916;-66
2021/07/22 05:52:32;;;;;;;;;;;28.50;99.90;;;;;;5051735;28;19919;-66
2021/07/22 05:54:58;;;;;;;;;;;29.10;99.90;;;;;;5051698;28;19908;-66
2021/07/22 05:57:23;;;;;;;;;;;29.40;99.90;;;;;;5049873;28;19962;-67
2021/07/22 05:59:49;;;;;;;;;;;29.80;99.90;;;;;;5051005;28;19912;-66
2021/07/22 06:02:14;;;;;;;;;;;30.30;99.90;;;;;;5051137;28;19909;-66
2021/07/22 06:04:40;;;;;;;;;;;30.60;99.90;;;;;;5051256;28;19909;-66
2021/07/22 06:07:06;;;;;;;;;;;30.60;99.90;;;;;;5051243;28;19913;-66
2021/07/22 06:09:32;;;;;;;;;;;30.80;99.90;;;;;;5050738;28;19970;-66
2021/07/22 06:11:57;;;;;;;;;;;30.70;99.90;;;;;;5050948;28;19964;-65
2021/07/22 06:14:23;;;;;;;;;;;30.80;99.90;;;;;;5049296;28;19959;-66
2021/07/22 06:16:48;;;;;;;;;;;30.80;99.90;;;;;;5051238;28;19920;-65
2021/07/22 06:19:14;;;;;;;;;;;30.60;99.90;;;;;;5049301;28;20488;-66
2021/07/22 06:21:39;;;;;;;;;;;30.90;99.90;;;;;;5051267;28;19984;-66
2021/07/22 06:24:05;;;;;;;;;;;31.50;99.90;;;;;;5050871;28;20322;-65
2021/07/22 06:26:34;;;;;;;;;;;30.80;99.90;;;;;;5050665;28;20265;-66
2021/07/22 06:29:01;;;;;;;;;;;30.30;99.90;;;;;;5049828;28;19921;-66
2021/07/22 06:31:26;;;;;;;;;;;30.10;99.90;;;;;;5049304;28;19919;-66
2021/07/22 06:33:52;;;;;;;;;;;30.40;99.90;;;;;;5050859;28;19909;-66
2021/07/22 06:36:17;;;;;;;;;;;30.90;99.90;;;;;;5050205;28;19908;-66
2021/07/22 06:38:43;;;;;;;;;;;31.60;99.90;;;;;;5049924;28;20281;-67
2021/07/22 06:41:10;;;;;;;;;;;32.60;99.90;;;;;;5050609;28;19913;-66
2021/07/22 06:43:35;;;;;;;;;;;33.30;99.90;;;;;;5050400;28;20456;-66
2021/07/22 06:46:01;;;;;;;;;;;32.50;98.60;;;;;;5050774;28;19908;-66
2021/07/22 06:48:26;;;;;;;;;;;32.20;98.10;;;;;;5049801;28;20298;-66
2021/07/22 06:50:52;;;;;;;;;;;32.40;96.50;;;;;;5050513;28;19913;-66
2021/07/22 06:53:18;;;;;;;;;;;32.50;94.80;;;;;;5050724;28;19912;-66
2021/07/22 06:55:43;;;;;;;;;;;32.10;92.90;;;;;;5050611;28;19912;-66
2021/07/22 06:58:09;;;;;;;;;;;32.50;92.30;;;;;;5049897;28;19974;-66
2021/07/22 07:00:35;;;;;;;;;;;33.20;90.10;;;;;;5049864;28;19909;-67
2021/07/22 07:03:02;;;;;;;;;;;33.70;85.30;;;;;;5050427;28;19913;-67
2021/07/22 07:05:27;;;;;;;;;;;34.90;81.00;;;;;;5050817;28;20327;-66
2021/07/22 07:07:56;;;;;;;;;;;35.90;75.40;;;;;;5050113;28;19947;-66
2021/07/22 07:10:21;;;;;;;;;;;36.40;70.30;;;;;;5050195;28;19913;-65
2021/07/22 07:12:47;;;;;;;;;;;37.00;65.70;;;;;;5050323;28;19942;-67
2021/07/22 07:15:12;;;;;;;;;;;37.10;59.90;;;;;;5049832;28;19966;-66
2021/07/22 07:17:37;;;;;;;;;;;35.90;55.80;;;;;;5049564;28;19909;-66
2021/07/22 07:20:03;;;;;;;;;;;35.20;54.00;;;;;;5050616;28;19971;-66
2021/07/22 07:22:29;;;;;;;;;;;35.30;66.50;;;;;;5050467;28;19916;-66
2021/07/22 07:24:54;;;;;;;;;;;36.20;49.50;;;;;;5050202;28;20242;-67
2021/07/22 07:27:20;;;;;;;;;;;36.60;47.40;;;;;;5048404;28;20021;-67
2021/07/22 07:29:45;;;;;;;;;;;37.20;44.70;;;;;;5049803;28;19912;-66
2021/07/22 07:32:11;;;;;;;;;;;36.30;41.70;;;;;;5054252;28;19916;-66
2021/07/22 07:34:36;;;;;;;;;;;35.70;39.80;;;;;;5054418;28;19909;-66
2021/07/22 07:37:02;;;;;;;;;;;35.40;38.70;;;;;;5053818;28;20004;-66
2021/07/22 07:39:27;;;;;;;;;;;36.40;38.10;;;;;;5053530;28;20003;-66
2021/07/22 07:41:54;;;;;;;;;;;37.70;37.60;;;;;;5054147;28;20387;-67
2021/07/22 07:44:19;;;;;;;;;;;39.20;35.00;;;;;;5054015;28;19909;-66
2021/07/22 07:46:45;;;;;;;;;;;39.00;32.70;;;;;;5054308;28;20316;-66
2021/07/22 07:49:10;;;;;;;;;;;39.20;30.80;;;;;;5052794;28;19952;-67
2021/07/22 07:51:36;;;;;;;;;;;39.40;28.80;;;;;;5053839;28;20381;-66
2021/07/22 07:54:02;;;;;;;;;;;40.30;27.10;;;;;;5053691;28;19912;-67
2021/07/22 07:56:27;;;;;;;;;;;41.30;25.80;;;;;;5053813;28;19915;-66
2021/07/22 07:58:52;;;;;;;;;;;41.30;23.50;;;;;;5052769;28;20362;-66
2021/07/22 08:01:18;;;;;;;;;;;40.70;19.80;;;;;;5053225;28;19912;-67
2021/07/22 08:03:44;;;;;;;;;;;40.60;18.00;;;;;;5053806;28;19920;-66
2021/07/22 08:09:12;;;;;;;;;;;41.20;14.40;;;;;;5052259;28;19920;-67
2021/07/22 08:11:38;;;;;;;;;;;42.40;13.40;;;;;;5053129;28;20555;-66
2021/07/22 08:14:03;;;;;;;;;;;42.70;11.40;;;;;;5053378;28;19954;-66
2021/07/22 08:16:29;;;;;;;;;;;43.20;9.80;;;;;;5053580;28;19920;-67
2021/07/22 08:18:54;;;;;;;;;;;43.20;7.30;;;;;;5052910;28;19908;-67
2021/07/22 08:21:20;;;;;;;;;;;43.00;5.40;;;;;;5053140;28;19962;-66
2021/07/22 08:23:45;;;;;;;;;;;43.00;3.60;;;;;;5052849;28;20002;-67
2021/07/22 08:26:11;;;;;;;;;;;43.70;2.40;;;;;;5053395;28;19909;-67
2021/07/22 08:28:36;;;;;;;;;;;44.10;1.00;;;;;;5042914;22;19929;-65
2021/07/22 08:31:02;;;;;;;;;;;44.50;1.00;;;;;;5033026;28;19968;-65
2021/07/22 08:33:28;;;;;;;;;;;44.10;1.00;;;;;;5033467;28;19944;-66
2021/07/22 08:35:53;;;;;;;;;;;44.70;1.00;;;;;;5033202;28;19949;-67
2021/07/22 08:38:19;;;;;;;;;;;45.00;1.00;;;;;;5032549;28;20368;-66
2021/07/22 08:40:44;;;;;;;;;;;45.70;1.00;;;;;;5032647;28;19910;-66
2021/07/22 08:43:10;;;;;;;;;;;45.70;1.00;;;;;;5031939;28;19913;-66
2021/07/22 08:45:36;;;;;;;;;;;45.20;1.00;;;;;;5032222;28;19909;-66
2021/07/22 08:48:02;;;;;;;;;;;45.30;1.00;;;;;;5032245;28;19913;-66
2021/07/22 08:50:27;;;;;;;;;;;45.40;1.00;;;;;;5032683;28;19914;-66
2021/07/22 08:52:53;;;;;;;;;;;46.40;1.00;;;;;;5032849;28;19909;-67
2021/07/22 08:55:19;;;;;;;;;;;47.10;1.00;;;;;;5032782;28;19913;-66
2021/07/22 08:57:44;;;;;;;;;;;47.60;1.00;;;;;;5032472;28;19948;-66
2021/07/22 09:00:10;;;;;;;;;;;47.10;1.00;;;;;;5032287;28;19956;-67
2021/07/22 09:02:36;;;;;;;;;;;47.20;1.00;;;;;;5032975;28;19917;-66
2021/07/22 09:05:03;;;;;;;;;;;46.90;1.00;;;;;;5032401;28;20335;-66
2021/07/22 09:07:29;;;;;;;;;;;46.30;1.00;;;;;;5031785;28;20310;-67
2021/07/22 09:10:09;;;;;;;;;;;46.00;1.00;;;;;;5032355;28;19961;-66
2021/07/22 09:12:42;;;;;;;;;;;46.00;1.00;;;;;;5032737;28;19909;-67
2021/07/22 09:15:08;;;;;;;;;;;46.30;1.00;;;;;;5031845;28;19915;-66
2021/07/22 09:17:34;;;;;;;;;;;47.40;1.00;;;;;;5031391;28;20396;-67
2021/07/22 09:19:59;;;;;;;;;;;47.50;1.00;;;;;;5032074;28;19909;-66
2021/07/22 09:22:32;;;;;;;;;;;46.60;1.00;;;;;;5032419;28;19909;-66
2021/07/22 09:24:57;;;;;;;;;;;45.30;1.00;;;;;;5032315;28;19940;-66
2021/07/22 09:27:33;;;;;;;;;;;46.30;1.00;;;;;;5031544;28;19983;-66
2021/07/22 09:29:59;;;;;;;;;;;46.50;1.00;;;;;;5031881;28;19913;-67
2021/07/22 09:32:35;;;;;;;;;;;46.00;1.00;;;;;;5032278;28;20238;-66
2021/07/22 09:35:05;;;;;;;;;;;45.30;1.00;;;;;;5032219;28;19921;-67
2021/07/22 09:37:30;;;;;;;;;;;44.50;1.00;;;;;;5031446;28;19920;-66
2021/07/22 09:39:56;;;;;;;;;;;44.40;1.00;;;;;;5031660;28;20374;-66
2021/07/22 09:42:21;;;;;;;;;;;43.70;1.00;;;;;;5032133;28;19931;-66
2021/07/22 09:44:47;;;;;;;;;;;43.80;1.00;;;;;;5031791;28;19936;-66
2021/07/22 09:47:12;;;;;;;;;;;43.50;1.00;;;;;;5031513;28;19909;-66
2021/07/22 09:49:39;;;;;;;;;;;44.10;1.00;;;;;;5031139;28;19955;-67
2021/07/22 09:52:25;;;;;;;;;;;43.90;1.00;;;;;;5031530;28;19924;-66
2021/07/22 09:54:50;;;;;;;;;;;44.20;1.00;;;;;;5030770;28;19967;-67
2021/07/22 09:57:17;;;;;;;;;;;45.20;1.00;;;;;;5030808;28;19913;-67
2021/07/22 09:59:44;;;;;;;;;;;46.10;1.00;;;;;;5030836;28;19910;-67
2021/07/22 10:02:15;;;;;;;;;;;46.50;1.00;;;;;;5031292;28;20001;-66
2021/07/22 10:04:41;;;;;;;;;;;46.40;1.00;;;;;;5029782;28;19913;-66
2021/07/22 10:07:06;;;;;;;;;;;45.90;1.00;;;;;;5031388;28;19909;-66
2021/07/22 10:09:34;;;;;;;;;;;45.70;1.00;;;;;;5030721;28;19959;-66
2021/07/22 10:12:01;;;;;;;;;;;45.40;1.00;;;;;;5031192;28;19913;-66
2021/07/22 10:14:28;;;;;;;;;;;44.30;1.00;;;;;;5030835;28;20278;-66
2021/07/22 10:16:54;;;;;;;;;;;43.80;1.00;;;;;;5031498;28;19935;-67
2021/07/22 10:19:21;;;;;;;;;;;42.90;1.00;;;;;;5030507;28;19913;-66
2021/07/22 10:21:46;;;;;;;;;;;42.70;1.00;;;;;;5031355;28;20383;-66
2021/07/22 10:24:12;;;;;;;;;;;42.90;1.00;;;;;;5030640;28;19959;-67
2021/07/22 10:26:41;;;;;;;;;;;44.00;1.00;;;;;;5031091;28;20000;-66
2021/07/22 10:29:07;;;;;;;;;;;45.40;1.00;;;;;;5030041;28;20031;-66
2021/07/22 10:31:33;;;;;;;;;;;45.70;1.00;;;;;;5031008;28;20019;-67
2021/07/22 10:34:00;;;;;;;;;;;45.00;1.00;;;;;;5030496;28;21469;-67
2021/07/22 10:36:27;;;;;;;;;;;45.10;1.00;;;;;;5030641;28;19909;-67
2021/07/22 10:38:52;;;;;;;;;;;44.80;1.00;;;;;;5029894;28;19932;-66
2021/07/22 10:41:27;;;;;;;;;;;44.00;1.00;;;;;;5030660;28;19909;-67
2021/07/22 10:43:52;;;;;;;;;;;44.10;1.00;;;;;;5030603;28;19909;-66
2021/07/22 10:46:20;;;;;;;;;;;44.10;1.00;;;;;;5030607;28;20425;-66
2021/07/22 10:48:46;;;;;;;;;;;44.50;1.00;;;;;;5029712;28;19909;-66
2021/07/22 10:51:11;;;;;;;;;;;45.20;1.00;;;;;;5030535;28;20377;-66
2021/07/22 10:53:47;;;;;;;;;;;45.80;1.00;;;;;;5030683;28;19943;-67
2021/07/22 10:56:17;;;;;;;;;;;45.90;99.90;;;;;;5030254;28;19910;-66
2021/07/22 10:58:42;;;;;;;;;;;45.50;99.90;;;;;;5029415;28;19920;-67
2021/07/22 11:01:08;;;;;;;;;;;45.10;99.60;;;;;;5030337;28;20409;-66
2021/07/22 11:03:33;;;;;;;;;;;44.30;88.20;;;;;;5030688;28;19932;-67
2021/07/22 11:06:19;;;;;;;;;;;44.70;69.60;;;;;;5029458;28;19913;-66
2021/07/22 11:09:05;;;;;;;;;;;44.70;81.50;;;;;;5029625;28;20047;-66
2021/07/22 11:11:45;;;;;;;;;;;45.10;95.10;;;;;;5030273;28;19913;-66
2021/07/22 11:26:24;;;;;;;;;;;38.10;95.00;;;;;;5030192;28;19916;-66
2021/07/22 11:28:49;;;;;;;;;;;37.60;68.40;;;;;;5028772;28;19921;-66
2021/07/22 11:31:15;;;;;;;;;;;37.80;52.60;;;;;;5030387;28;19913;-66
2021/07/22 11:33:41;;;;;;;;;;;38.20;90.40;;;;;;5030511;28;19916;-65
2021/07/22 11:36:08;;;;;;;;;;;38.50;99.90;;;;;;5030355;28;20374;-66
2021/07/22 11:38:34;;;;;;;;;;;38.60;99.90;;;;;;5029301;28;19966;-66
2021/07/22 11:41:00;;;;;;;;;;;38.40;99.90;;;;;;5029990;28;20004;-66
2021/07/22 11:43:32;;;;;;;;;;;37.40;99.90;;;;;;5029340;28;19909;-66
2021/07/22 11:45:57;;;;;;;;;;;35.90;99.90;;;;;;5029929;28;20005;-65
2021/07/22 11:48:23;;;;;;;;;;;34.70;99.90;;;;;;5029248;28;20392;-65
2021/07/22 11:50:59;;;;;;;;;;;34.10;99.90;;;;;;5029740;28;20413;-67
2021/07/22 11:53:25;;;;;;;;;;;34.60;99.90;;;;;;5029485;28;19920;-66
2021/07/22 11:55:50;;;;;;;;;;;35.60;99.90;;;;;;5029643;28;19909;-65
2021/07/22 11:58:16;;;;;;;;;;;36.30;1.00;;;;;;5029284;28;19909;-65
2021/07/22 12:00:42;;;;;;;;;;;36.40;1.00;;;;;;5029236;28;19917;-65
2021/07/22 12:03:08;;;;;;;;;;;36.00;1.00;;;;;;5029560;28;20293;-65
2021/07/22 12:05:33;;;;;;;;;;;35.50;1.00;;;;;;5029421;28;20003;-64
2021/07/22 12:08:15;;;;;;;;;;;34.40;1.00;;;;;;5028877;28;20003;-65
2021/07/22 12:10:41;;;;;;;;;;;32.70;1.00;;;;;;5029483;28;19924;-65
2021/07/22 12:13:08;;;;;;;;;;;32.10;1.00;;;;;;5029563;28;19995;-65
2021/07/22 12:15:37;;;;;;;;;;;31.60;1.00;;;;;;5028880;28;20422;-67
2021/07/22 12:18:04;;;;;;;;;;;31.60;1.00;;;;;;5031230;28;19948;-66
2021/07/22 12:20:29;;;;;;;;;;;31.50;1.00;;;;;;5033284;28;19940;-67
2021/07/22 12:22:55;;;;;;;;;;;31.80;1.00;;;;;;5033026;28;19909;-65
2021/07/22 12:25:21;;;;;;;;;;;31.40;1.00;;;;;;5033437;28;19996;-68
2021/07/22 12:27:49;;;;;;;;;;;31.20;1.00;;;;;;5032698;28;19939;-66
2021/07/22 12:30:16;;;;;;;;;;;31.00;1.00;;;;;;5033134;28;19967;-67
2021/07/22 12:32:50;;;;;;;;;;;30.60;1.00;;;;;;5033301;28;19963;-67
2021/07/22 12:35:32;;;;;;;;;;;30.80;1.00;;;;;;5033333;28;19913;-65
2021/07/22 12:37:59;;;;;;;;;;;31.30;1.00;;;;;;5032644;28;20345;-65
2021/07/22 12:40:37;;;;;;;;;;;31.20;1.00;;;;;;5033370;28;19945;-65
2021/07/22 12:43:03;;;;;;;;;;;30.60;1.00;;;;;;5032838;28;20389;-65
2021/07/22 12:45:29;;;;;;;;;;;30.60;1.00;;;;;;5032316;28;20297;-66
2021/07/22 12:47:54;;;;;;;;;;;30.50;1.00;;;;;;5030820;28;20004;-66
2021/07/22 12:50:33;;;;;;;;;;;30.70;1.00;;;;;;5032752;28;19919;-67
2021/07/22 12:53:03;;;;;;;;;;;31.00;1.00;;;;;;5032852;28;19909;-66
2021/07/22 12:55:30;;;;;;;;;;;31.30;1.00;;;;;;5037689;28;20259;-66
2021/07/22 12:57:55;;;;;;;;;;;31.50;1.90;;;;;;5034380;28;19909;-66
2021/07/22 13:00:21;;;;;;;;;;;31.80;2.80;;;;;;5032187;28;19962;-68
2021/07/22 13:02:52;;;;;;;;;;;32.10;2.80;;;;;;5032897;28;19939;-66
2021/07/22 13:05:18;;;;;;;;;;;32.30;3.00;;;;;;5032258;28;19909;-65
2021/07/22 13:07:43;;;;;;;;;;;32.30;4.60;;;;;;5032151;28;20257;-66
2021/07/22 13:10:09;;;;;;;;;;;32.30;3.60;;;;;;5032156;28;19916;-65
2021/07/22 13:12:34;;;;;;;;;;;32.10;3.70;;;;;;5032497;28;19916;-65
2021/07/22 13:15:00;;;;;;;;;;;32.10;3.90;;;;;;5030775;28;19913;-65
2021/07/22 13:17:26;;;;;;;;;;;31.80;4.40;;;;;;5031805;28;20270;-66
2021/07/22 13:19:51;;;;;;;;;;;31.80;4.70;;;;;;5032476;28;20300;-66
2021/07/22 13:22:17;;;;;;;;;;;31.80;5.10;;;;;;5032519;28;20251;-66
2021/07/22 13:24:48;;;;;;;;;;;31.90;4.30;;;;;;5032413;28;19909;-67
2021/07/22 13:27:17;;;;;;;;;;;31.90;5.40;;;;;;5030556;28;19922;-65
2021/07/22 13:29:43;;;;;;;;;;;31.70;5.10;;;;;;5031240;28;19914;-66
2021/07/22 13:32:10;;;;;;;;;;;31.20;6.00;;;;;;5032567;28;19909;-66
2021/07/22 13:34:37;;;;;;;;;;;30.90;6.10;;;;;;5032060;28;19909;-67
2021/07/22 13:37:03;;;;;;;;;;;30.70;7.00;;;;;;5032164;28;19916;-65
2021/07/22 13:39:28;;;;;;;;;;;30.50;7.40;;;;;;5031684;28;20364;-67
2021/07/22 13:41:54;;;;;;;;;;;30.30;8.00;;;;;;5031926;28;19913;-66
2021/07/22 13:44:19;;;;;;;;;;;30.20;8.80;;;;;;5031806;28;19924;-65
2021/07/22 13:46:45;;;;;;;;;;;30.20;9.80;;;;;;5032219;28;20396;-66
2021/07/22 13:49:10;;;;;;;;;;;30.30;9.90;;;;;;5031159;28;20337;-66
2021/07/22 13:51:36;;;;;;;;;;;30.40;10.70;;;;;;5031765;28;19985;-66
2021/07/22 13:54:01;;;;;;;;;;;30.50;11.10;;;;;;5032163;28;19920;-66
2021/07/22 13:56:27;;;;;;;;;;;30.70;12.10;;;;;;5032166;28;19996;-67
2021/07/22 13:58:52;;;;;;;;;;;30.50;11.80;;;;;;5030931;28;19932;-66
2021/07/22 14:01:18;;;;;;;;;;;30.20;11.00;;;;;;5031861;28;19983;-65
2021/07/22 14:03:43;;;;;;;;;;;30.00;11.80;;;;;;5031234;28;19913;-65
2021/07/22 14:06:09;;;;;;;;;;;29.80;12.60;;;;;;5031273;28;20521;-65
2021/07/22 14:08:34;;;;;;;;;;;29.90;13.20;;;;;;5031349;28;19948;-66
2021/07/22 14:11:00;;;;;;;;;;;30.00;15.00;;;;;;5031761;28;20487;-66
2021/07/22 14:13:25;;;;;;;;;;;29.90;15.20;;;;;;5031762;28;19910;-66
2021/07/22 14:15:54;;;;;;;;;;;30.00;17.00;;;;;;5031671;28;20377;-66
2021/07/22 14:18:19;;;;;;;;;;;30.00;16.90;;;;;;5030737;28;20286;-66
2021/07/22 14:20:45;;;;;;;;;;;30.10;18.00;;;;;;5031362;28;19909;-66
2021/07/22 14:23:11;;;;;;;;;;;30.20;18.40;;;;;;5031990;28;19915;-66
2021/07/22 14:25:38;;;;;;;;;;;30.40;19.50;;;;;;5031328;28;19917;-66
2021/07/22 14:28:04;;;;;;;;;;;30.70;19.90;;;;;;5053990;22;20452;-65
2021/07/22 14:30:31;;;;;;;;;;;30.90;20.80;;;;;;5031061;28;19971;-64
2021/07/22 14:32:56;;;;;;;;;;;31.00;21.60;;;;;;5031316;28;19916;-66
2021/07/22 14:35:22;;;;;;;;;;;31.00;21.30;;;;;;5030883;28;19913;-66